Huvudsida
METAR-TAF:

METAR-TAF

Flygplatser :

Bombay, Indien

Chhatrapati Shivajis internationella flygplats

latitud: 19-07N, longitud: 072-51E, höjd: 8 m

Aktuellt väderrapport

Denna rapport gjordes för 10 minuter sedan, klockan 22:00 UTC
Stilla vind
Temperatur 28°C
Fuktighet 74%
Tryck 1008 hPa
Sikt: 3000 m
torrdis

METAR: VABB 222200Z 00000KT 3000 HZ NSC 28/23 Q1008 NOSIG

Tid: 03:40 (22:10 UTC)

Väderprognos

Denna rapport gjordes för 5 timmar och 10 minuter sedan, klockan 17:00 UTC
Prognos gäller från 22 kl. 18 UTC till 23 kl. 24 UTC
Vind 4 kt från nord/nordväst
Sikt: 3000 m
Få moln på en höjd av 2000 ft
torrdis
Blir
från 23 kl. 01 UTC till 23 kl. 03 UTC
Vind 5 kt från nordost
Blir
från 23 kl. 05 UTC till 23 kl. 07 UTC
Vind 10 kt från väst/nordväst
Sikt: 5000 m
rök
Blir
från 23 kl. 13 UTC till 23 kl. 15 UTC
Vind 5 kt från nord
Sikt: 3000 m
torrdis

TAF: VABB 221700Z 2218/2324 34004KT 3000 HZ FEW020 BECMG 2301/2303 04005KT BECMG 2305/2307 29010KT 5000 FU BECMG 2313/2315 35005KT 3000 HZ

Aktuella väderrapporter och prognoser från 4000 flygplatser (METAR- och TAF-rapporter).

De tillgängliga stationerna syns som gula och röda prickar på kartan.

För musen över prickarna för att se namnen på stationerna.

Klicka sedan för att få väderrapporter och prognoser.

För att ändra kartan: Klicka på de gröna knapparna med ett svart kors på för att zooma in; den gröna knappen med ett streck på för att zooma ut; eller på de gröna pilarna för angränsande kartor.


METAR-TAF: